ADDS METAR Data INFO
IDs: Format: Raw Decoded Include TAF

Data at: 0212 UTC 17 Aug 2018

PPIT 170156Z AUTO 27007KT 10SM BKN041 16/08 A2999 RMK AO2 SLP154 T01610083 TSNO
PPIT 170056Z AUTO 24006KT 10SM CLR 16/07 A2999 RMK AO2 SLP155 T01560067 TSNO
PPIT 162356Z AUTO VRB04KT 10SM CLR 16/07 A3000 RMK AO2 SLP158 T01560067 10156 20117 58002 TSNO
PPIT 162256Z AUTO 20006KT 10SM CLR 14/07 A3000 RMK AO2 SLP160 T01440067 TSNO
PPIT 162156Z AUTO 24007KT 10SM CLR 14/07 A3000 RMK AO2 SLP159 T01440072 TSNO
PPIT 162056Z AUTO 23009KT 10SM CLR 14/08 A3000 RMK AO2 SLP160 T01390083 51004 TSNO
PPIT 161956Z AUTO 23009KT 10SM CLR 13/09 A3000 RMK AO2 SLP160 T01280089 TSNO
PPIT 161856Z AUTO 24008KT 10SM CLR 12/09 A3000 RMK AO2 SLP157 T01220094 TSNO
PPIT 161656Z AUTO 24006KT 10SM BKN055 OVC070 10/09 A2999 RMK AO2 SLP154 T01000094 TSNO
PPIT 161556Z AUTO 25007KT 10SM OVC065 11/10 A2998 RMK AO2 SLP152 T01060100 TSNO
PPIT 161456Z AUTO 24005KT 10SM OVC049 11/10 A2998 RMK AO2 SLP151 T01060100 51003 TSNO
PPIT 161356Z AUTO 22004KT 10SM BKN049 OVC075 11/10 A2997 RMK AO2 SLP150 T01060100 TSNO
PPIT 161256Z AUTO 23005KT 10SM OVC065 11/10 A2997 RMK AO2 SLP149 T01060100 TSNO
PPIT 161156Z AUTO 27004KT 10SM OVC050 11/09 A2997 RMK AO2 SLP148 60000 T01060094 10122 20100 53004 TSNO
PPIT 161056Z AUTO 25005KT 10SM BKN055 11/10 A2996 RMK AO2 SLP147 T01060100 TSNO
PPIT 160956Z AUTO 27006KT 10SM SCT055 OVC070 11/10 A2996 RMK AO2 SLP145 T01060100 TSNO
PPIT 160756Z AUTO 26005KT 10SM OVC055 11/09 A2995 RMK AO2 SLP142 T01110094 TSNO
PPIT 160656Z AUTO 23004KT 10SM OVC060 11/09 A2994 RMK AO2 SLP137 T01110094 TSNO
PPIT 160556Z AUTO 28004KT 10SM FEW070 12/10 A2993 RMK AO2 RAE34 SLP135 P0000 60000 T01220100 10150 20122 53006 TSNO
PPIT 160456Z AUTO 00000KT 10SM -RA FEW043 BKN050 OVC065 14/09 A2992 RMK AO2 RAB50 SLP133 P0000 T01390094 TSNO
PPIT 160356Z AUTO 20003KT 10SM OVC050 14/09 A2991 RMK AO2 SLP130 T01390089 TSNO
PPIT 160256Z AUTO 18006KT 10SM OVC070 14/08 A2991 RMK AO2 SLP129 T01440083 56001 TSNO
PPIT 160156Z AUTO 13003KT 10SM OVC060 14/07 A2991 RMK AO2 SLP129 T01440072 TSNO
PPIT 160056Z AUTO 13003KT 10SM OVC060 14/07 A2991 RMK AO2 SLP128 T01390067 TSNO
PPIT 152356Z AUTO 08006KT 10SM OVC060 13/07 A2991 RMK AO2 SLP130 T01330067 10139 20094 50001 TSNO
PPIT 152256Z AUTO 07007KT 10SM FEW047 13/07 A2992 RMK AO2 SLP131 T01330067 TSNO
PPIT 152156Z AUTO 08007KT 10SM FEW029 13/07 A2992 RMK AO2 SLP132 T01330072 TSNO
PPIT 152056Z AUTO 09008KT 10SM BKN037 13/07 A2991 RMK AO2 SLP129 T01280072 53002 TSNO
PPIT 152003Z AUTO 07009KT 10SM OVC034 12/08 A2991 RMK AO2 TSNO
PPIT 151956Z AUTO 08008KT 10SM BKN029 OVC037 11/08 A2991 RMK AO2 SLP128 T01110078 TSNO
PPIT 151756Z AUTO 08009KT 10SM OVC037 09/07 A2989 RMK AO2 SLP123 T00940072 10094 20078 51008 TSNO
PPIT 151656Z AUTO 08008KT 10SM OVC033 08/07 A2989 RMK AO2 SLP121 T00830072 TSNO
PPIT 151617Z AUTO 07011KT 10SM BKN031 OVC041 08/07 A2988 RMK AO2 TSNO
PPIT 151556Z AUTO 07010KT 10SM OVC027 08/07 A2988 RMK AO2 SLP119 T00830072 TSNO
PPIT 151538Z AUTO 07009KT 10SM BKN027 BKN050 OVC070 08/07 A2988 RMK AO2 TSNO
PPIT 151456Z AUTO 08008KT 10SM OVC080 08/07 A2987 RMK AO2 SLP115 T00780067 58000 TSNO